Terminal Aerodrome Forecast
Issued by NWS

Home | Current Version | Previous Version | Graphics & Text | Print | Product List | Glossary On
Versions: 1 2 3 4 5 6 7 8 9 10 11 12 13
130
FTUS43 KICT 281120
TAFHUT
TAF
KHUT 281120Z 2812/2912 34011KT P6SM SKC
     FM290200 33004KT P6SM SKC
     FM290600 24004KT P6SM SKC=

USA.gov is the U.S. government's official web portal to all federal, state and local government web resources and services.